Providence, Rhode Island
Traffic Map
Current Weather Conditions
Providence, Rhode Island
Overcast Light Rain
Overcast
23°
Feels Like: 23°
Wind Chill: 23° Ceiling: 11000
Heat Index: 23° Visibility: 10mi
Dew Point: 20° Wind: 7mph
Humidity: 82% Direction: 350° (N)
Pressure: 29.87in Gusts: 0mph
Raw Report DataKPVD 291151Z 35006KT 10SM -RA FEW015 FEW090 OVC110 23/20 A2987 RMK AO2 SLP112 P0001 60004 70004 T02330200 10244 20228 53004
Traffic Incident Summary
Active as of:
Severity:
Category:
InformationThere was an issue retrieving the traffic information for this location. Please try a different location or try again shortly.
Advertisements
Track Severe Weather on mobile